Time;durP1;ratioP1;P1;durP2;ratioP2;P2;SDS_P1;SDS_P2;PMS_P1;PMS_P2;Temp;Humidity;BMP_temperature;BMP_pressure;BME280_temperature;BME280_humidity;BME280_pressure;Samples;Min_cycle;Max_cycle;Signal;HPM_P1;HPM_P2
2023/05/22 00:01:28;;;;;;;22.50;18.63;;;17.50;99.90;;;;;;5004412;28;20057;-58
2023/05/22 00:03:54;;;;;;;21.27;19.08;;;17.50;99.90;;;;;;5004149;28;20049;-58
2023/05/22 00:06:21;;;;;;;20.17;17.20;;;17.50;99.90;;;;;;5004498;28;20048;-58
2023/05/22 00:08:47;;;;;;;21.20;18.58;;;17.50;99.90;;;;;;5004634;28;20425;-57
2023/05/22 00:11:12;;;;;;;20.55;17.77;;;17.50;99.90;;;;;;5004089;28;20100;-57
2023/05/22 00:13:38;;;;;;;19.90;17.27;;;17.60;99.90;;;;;;5003695;28;20049;-59
2023/05/22 00:16:04;;;;;;;21.95;17.80;;;17.50;99.90;;;;;;5004443;28;20081;-56
2023/05/22 00:18:31;;;;;;;21.90;18.55;;;17.50;99.90;;;;;;5004359;28;20320;-57
2023/05/22 00:20:57;;;;;;;21.10;18.83;;;17.60;99.90;;;;;;5004492;28;20460;-58
2023/05/22 00:23:23;;;;;;;20.63;18.40;;;17.60;99.90;;;;;;5003894;28;20085;-58
2023/05/22 00:25:49;;;;;;;22.73;18.52;;;17.50;99.90;;;;;;5004399;28;20038;-59
2023/05/22 00:28:15;;;;;;;21.67;19.20;;;17.50;99.90;;;;;;5006863;28;20053;-58
2023/05/22 00:30:40;;;;;;;22.17;18.40;;;17.40;99.90;;;;;;5008038;28;20050;-58
2023/05/22 00:33:06;;;;;;;23.55;18.88;;;17.40;99.90;;;;;;5007624;28;20124;-58
2023/05/22 00:35:32;;;;;;;20.90;18.80;;;17.30;99.90;;;;;;5007714;28;20030;-58
2023/05/22 00:37:57;;;;;;;21.55;19.23;;;17.40;99.90;;;;;;5007394;28;20541;-58
2023/05/22 00:40:23;;;;;;;20.85;18.65;;;17.30;99.90;;;;;;4990141;28;20053;-58
2023/05/22 00:42:48;;;;;;;23.25;18.98;;;17.30;99.90;;;;;;4990011;28;20477;-58
2023/05/22 00:45:14;;;;;;;21.17;18.33;;;17.40;99.90;;;;;;5006765;28;20298;-58
2023/05/22 00:47:40;;;;;;;24.35;18.77;;;17.30;99.90;;;;;;5007498;28;20463;-57
2023/05/22 00:50:08;;;;;;;21.65;19.35;;;17.30;99.90;;;;;;5007317;28;20176;-57
2023/05/22 00:52:36;;;;;;;20.80;18.60;;;17.30;99.90;;;;;;5007337;28;20060;-56
2023/05/22 00:55:02;;;;;;;22.42;18.65;;;17.30;99.90;;;;;;5007289;28;20046;-56
2023/05/22 00:57:29;;;;;;;20.98;18.55;;;17.30;99.90;;;;;;4989955;28;20050;-58
2023/05/22 00:59:55;;;;;;;20.88;18.63;;;17.30;99.90;;;;;;5006540;28;20042;-58
2023/05/22 01:02:22;;;;;;;22.40;19.48;;;17.30;99.90;;;;;;5006603;28;20549;-59
2023/05/22 01:04:48;;;;;;;20.77;17.85;;;17.20;99.90;;;;;;5007540;28;20397;-58
2023/05/22 01:07:15;;;;;;;20.85;18.63;;;17.20;99.90;;;;;;5007355;28;20053;-59
2023/05/22 01:09:41;;;;;;;22.10;18.52;;;17.20;99.90;;;;;;5006937;28;20041;-58
2023/05/22 01:12:21;;;;;;;23.30;19.33;;;17.20;99.90;;;;;;5006945;28;20136;-55
2023/05/22 01:15:01;;;;;;;22.27;18.83;;;17.20;99.90;;;;;;5005959;28;20507;-56
2023/05/22 01:17:33;;;;;;;21.90;19.67;;;17.20;99.90;;;;;;5006947;28;20053;-58
2023/05/22 01:20:06;;;;;;;21.35;19.25;;;17.20;99.90;;;;;;5006545;28;20042;-58
2023/05/22 01:22:49;;;;;;;22.73;19.30;;;17.10;99.90;;;;;;5006202;28;20551;-59
2023/05/22 01:25:36;;;;;;;22.23;20.00;;;17.00;99.90;;;;;;5006830;28;20417;-56
2023/05/22 01:28:39;;;;;;;23.05;19.25;;;17.00;99.90;;;;;;5006101;28;20133;-57
2023/05/22 01:31:14;;;;;;;20.40;18.30;;;17.00;99.90;;;;;;4961070;28;20050;-58
2023/05/22 01:33:47;;;;;;;21.48;19.02;;;17.00;99.90;;;;;;5006474;28;20292;-58
2023/05/22 01:36:19;;;;;;;22.17;19.83;;;17.00;99.90;;;;;;5006625;28;20042;-58
2023/05/22 01:38:45;;;;;;;21.58;19.27;;;17.00;99.90;;;;;;5006769;28;20412;-56
2023/05/22 01:41:12;;;;;;;21.95;19.58;;;17.00;99.90;;;;;;5006434;28;20042;-57
2023/05/22 01:43:39;;;;;;;23.23;20.05;;;17.00;99.90;;;;;;5005105;28;20049;-58
2023/05/22 01:46:05;;;;;;;21.63;19.50;;;16.90;99.90;;;;;;4988719;28;20133;-58
2023/05/22 01:48:31;;;;;;;22.58;20.23;;;16.90;99.90;;;;;;5006257;28;20045;-55
2023/05/22 01:51:04;;;;;;;22.30;19.98;;;16.90;99.90;;;;;;5006319;28;20397;-58
2023/05/22 01:53:38;;;;;;;22.30;19.98;;;16.80;99.90;;;;;;5006284;28;20049;-59
2023/05/22 01:56:15;;;;;;;22.98;19.85;;;16.70;99.90;;;;;;5006314;28;20052;-58
2023/05/22 01:58:47;;;;;;;22.67;20.38;;;16.70;99.90;;;;;;5005215;28;20062;-58
2023/05/22 02:01:16;;;;;;;22.30;19.88;;;16.70;99.90;;;;;;5006460;28;20463;-59
2023/05/22 02:03:45;;;;;;;22.98;20.38;;;16.60;99.90;;;;;;5005591;28;20049;-57
2023/05/22 02:06:13;;;;;;;22.75;20.33;;;16.60;99.90;;;;;;5006054;28;20092;-58
2023/05/22 02:08:41;;;;;;;22.92;19.85;;;16.60;99.90;;;;;;5006614;28;20472;-65
2023/05/22 02:11:08;;;;;;;24.15;20.83;;;16.70;99.90;;;;;;5005391;28;20046;-56
2023/05/22 02:13:34;;;;;;;24.00;21.08;;;16.70;99.90;;;;;;5005549;28;20072;-58
2023/05/22 02:16:02;;;;;;;22.52;20.20;;;16.70;99.90;;;;;;5006005;28;20046;-59
2023/05/22 02:18:29;;;;;;;23.30;20.90;;;16.70;99.90;;;;;;5005797;28;20042;-62
2023/05/22 02:20:58;;;;;;;22.70;20.25;;;16.70;99.90;;;;;;5005243;28;20050;-60
2023/05/22 02:23:25;;;;;;;24.65;21.17;;;16.70;99.90;;;;;;5005584;28;20288;-61
2023/05/22 02:25:51;;;;;;;23.80;21.25;;;16.70;99.90;;;;;;5005980;28;20428;-58
2023/05/22 02:28:16;;;;;;;23.40;21.00;;;16.70;99.90;;;;;;5004838;28;20033;-57
2023/05/22 02:30:42;;;;;;;23.73;21.25;;;16.70;99.90;;;;;;5005599;28;20493;-66
2023/05/22 02:33:08;;;;;;;22.77;20.42;;;16.70;99.90;;;;;;5005545;28;20030;-59
2023/05/22 02:35:34;;;;;;;25.02;22.30;;;16.70;99.90;;;;;;5005058;28;20053;-59
2023/05/22 02:38:00;;;;;;;25.20;22.50;;;16.70;99.90;;;;;;5005695;28;20038;-58
2023/05/22 02:40:26;;;;;;;26.67;22.17;;;16.70;99.90;;;;;;4987914;28;20507;-58
2023/05/22 02:42:51;;;;;;;24.55;21.98;;;16.70;99.90;;;;;;5004839;28;20072;-57
2023/05/22 02:45:17;;;;;;;24.92;22.33;;;16.70;99.90;;;;;;5005466;28;20034;-58
2023/05/22 02:47:43;;;;;;;27.00;22.15;;;16.70;99.90;;;;;;5005519;28;20139;-59
2023/05/22 02:50:09;;;;;;;24.67;22.08;;;16.70;99.90;;;;;;5004835;28;20048;-58
2023/05/22 02:52:35;;;;;;;23.38;20.73;;;16.80;99.90;;;;;;5004625;28;20052;-58
2023/05/22 02:55:03;;;;;;;26.00;22.20;;;16.80;99.90;;;;;;4987744;28;20045;-59
2023/05/22 02:57:28;;;;;;;26.73;23.50;;;16.70;99.90;;;;;;5005278;28;20049;-59
2023/05/22 02:59:56;;;;;;;25.67;22.98;;;16.70;99.90;;;;;;5003638;28;20326;-59
2023/05/22 03:02:24;;;;;;;26.40;23.60;;;16.70;99.90;;;;;;5005023;28;20505;-57
2023/05/22 03:04:50;;;;;;;25.58;22.98;;;16.70;99.90;;;;;;5005434;28;20100;-59
2023/05/22 03:07:15;;;;;;;27.70;23.92;;;16.70;99.90;;;;;;5004681;28;20065;-56
2023/05/22 03:09:41;;;;;;;26.48;23.65;;;16.70;99.90;;;;;;5005099;28;20046;-58
2023/05/22 03:12:07;;;;;;;26.60;23.63;;;16.60;99.90;;;;;;5005140;28;20053;-59
2023/05/22 03:14:33;;;;;;;26.83;23.25;;;16.70;99.90;;;;;;5004130;28;20416;-58
2023/05/22 03:16:59;;;;;;;29.73;22.75;;;16.70;99.90;;;;;;5004470;28;20046;-58
2023/05/22 03:19:25;;;;;;;26.75;22.60;;;16.60;99.90;;;;;;4987224;28;20037;-56
2023/05/22 03:21:50;;;;;;;25.63;22.20;;;16.60;99.90;;;;;;4987651;28;20081;-58
2023/05/22 03:24:16;;;;;;;26.15;23.40;;;16.60;99.90;;;;;;4986843;28;20575;-59
2023/05/22 03:26:42;;;;;;;26.38;23.38;;;16.60;99.90;;;;;;5004985;28;20049;-56
2023/05/22 03:29:08;;;;;;;26.63;23.80;;;16.60;99.90;;;;;;4986781;28;20077;-56
2023/05/22 03:31:35;;;;;;;25.63;22.73;;;16.50;99.90;;;;;;5004881;28;20371;-59
2023/05/22 03:34:01;;;;;;;24.77;22.17;;;16.50;99.90;;;;;;5004473;28;20049;-59
2023/05/22 03:36:27;;;;;;;25.10;22.30;;;16.50;99.90;;;;;;5004715;28;20211;-58
2023/05/22 03:38:53;;;;;;;26.40;23.42;;;16.50;99.90;;;;;;5005031;28;20523;-57
2023/05/22 03:41:18;;;;;;;24.95;22.38;;;16.50;99.90;;;;;;4986895;28;20496;-58
2023/05/22 03:43:45;;;;;;;25.60;22.30;;;16.50;99.90;;;;;;5004104;28;20046;-59
2023/05/22 03:46:10;;;;;;;26.65;23.08;;;16.50;99.90;;;;;;5004651;28;20116;-58
2023/05/22 03:48:37;;;;;;;25.42;22.73;;;16.50;99.90;;;;;;5004301;28;20429;-55
2023/05/22 03:51:03;;;;;;;26.80;22.55;;;16.50;99.90;;;;;;5004565;28;20042;-58
2023/05/22 03:53:28;;;;;;;26.20;22.10;;;16.50;99.90;;;;;;5004745;28;20436;-58
2023/05/22 03:55:56;;;;;;;24.65;21.95;;;16.50;99.90;;;;;;5005267;28;20092;-58
2023/05/22 03:58:24;;;;;;;24.73;21.98;;;16.50;99.90;;;;;;4985974;28;20056;-59
2023/05/22 04:00:51;;;;;;;23.90;21.50;;;16.50;99.90;;;;;;4987493;28;20046;-58
2023/05/22 04:03:18;;;;;;;23.98;21.40;;;16.50;99.90;;;;;;5008085;28;20091;-57
2023/05/22 04:05:44;;;;;;;24.17;21.60;;;16.50;99.90;;;;;;4990221;28;20034;-59
2023/05/22 04:08:09;;;;;;;24.10;21.67;;;16.50;99.90;;;;;;5008253;28;20316;-58
2023/05/22 04:10:37;;;;;;;26.80;22.00;;;16.50;99.90;;;;;;5008339;28;20137;-58
2023/05/22 04:13:03;;;;;;;26.75;21.88;;;16.60;99.90;;;;;;5006971;28;20065;-58
2023/05/22 04:15:29;;;;;;;22.77;20.38;;;16.60;99.90;;;;;;5007855;28;20064;-59
2023/05/22 04:17:54;;;;;;;26.00;23.27;;;16.60;99.90;;;;;;5008347;28;20045;-57
2023/05/22 04:20:21;;;;;;;27.25;23.20;;;16.70;99.90;;;;;;5007774;28;20042;-57
2023/05/22 04:22:47;;;;;;;25.77;22.58;;;16.70;99.90;;;;;;5007532;28;20382;-57
2023/05/22 04:25:13;;;;;;;25.58;22.88;;;16.70;99.90;;;;;;4990228;28;20532;-57
2023/05/22 04:27:39;;;;;;;25.20;22.50;;;16.60;99.90;;;;;;5007037;28;20084;-59
2023/05/22 04:30:07;;;;;;;25.92;23.13;;;16.60;99.90;;;;;;5007442;28;20485;-59
2023/05/22 04:32:35;;;;;;;26.77;23.98;;;16.60;99.90;;;;;;5007516;28;20124;-58
2023/05/22 04:35:00;;;;;;;26.63;23.63;;;16.70;99.90;;;;;;5007616;28;20121;-59
2023/05/22 04:37:27;;;;;;;28.40;25.02;;;16.70;99.90;;;;;;5007439;28;20077;-59
2023/05/22 04:39:57;;;;;;;27.02;24.13;;;16.70;99.90;;;;;;5007705;28;20037;-59
2023/05/22 04:42:24;;;;;;;27.25;24.35;;;16.60;99.90;;;;;;5006956;28;20120;-58
2023/05/22 04:44:51;;;;;;;27.65;24.70;;;16.60;99.90;;;;;;5006762;28;20503;-57
2023/05/22 04:47:18;;;;;;;28.60;25.35;;;16.60;99.90;;;;;;5007346;28;20508;-59
2023/05/22 04:49:44;;;;;;;28.10;25.15;;;16.60;99.90;;;;;;4990100;28;20169;-58
2023/05/22 04:52:10;;;;;;;28.45;25.33;;;16.60;99.90;;;;;;5007224;28;20034;-57
2023/05/22 04:54:37;;;;;;;28.42;25.48;;;16.60;99.90;;;;;;5007424;28;20394;-59
2023/05/22 04:57:03;;;;;;;33.38;26.25;;;16.50;99.90;;;;;;5007344;28;20057;-57
2023/05/22 04:59:39;;;;;;;31.63;27.02;;;16.50;99.90;;;;;;5006362;28;20042;-57
2023/05/22 05:02:05;;;;;;;31.30;27.90;;;16.50;99.90;;;;;;5007310;28;20485;-57
2023/05/22 05:04:31;;;;;;;30.25;27.05;;;16.50;99.90;;;;;;5007265;28;20155;-57
2023/05/22 05:06:57;;;;;;;32.50;28.02;;;16.50;99.90;;;;;;5007433;28;20501;-58
2023/05/22 05:09:26;;;;;;;36.92;27.63;;;16.50;99.90;;;;;;5006729;28;20038;-55
2023/05/22 05:11:52;;;;;;;31.75;28.33;;;16.50;99.90;;;;;;5006529;28;20364;-58
2023/05/22 05:14:18;;;;;;;31.30;27.23;;;16.50;99.90;;;;;;5006178;28;20081;-58
2023/05/22 05:16:45;;;;;;;35.22;27.80;;;16.50;99.90;;;;;;5006553;28;20049;-58
2023/05/22 05:19:11;;;;;;;33.22;27.45;;;16.40;99.90;;;;;;5006924;28;20038;-57
2023/05/22 05:21:37;;;;;;;34.30;27.17;;;16.40;99.90;;;;;;5006786;28;20042;-57
2023/05/22 05:24:04;;;;;;;33.78;26.98;;;16.40;99.90;;;;;;5006422;28;20042;-59
2023/05/22 05:26:29;;;;;;;30.08;26.05;;;16.30;99.90;;;;;;5006844;28;20042;-57
2023/05/22 05:28:55;;;;;;;33.95;27.70;;;16.30;99.90;;;;;;5006194;28;20040;-59
2023/05/22 05:31:21;;;;;;;32.97;28.20;;;16.30;99.90;;;;;;5006688;28;20034;-58
2023/05/22 05:33:47;;;;;;;36.08;27.17;;;16.30;99.90;;;;;;5006202;28;20108;-58
2023/05/22 05:36:13;;;;;;;35.45;26.90;;;16.30;99.90;;;;;;5006505;28;20124;-59
2023/05/22 05:38:39;;;;;;;31.00;26.52;;;16.30;99.90;;;;;;5006751;28;20121;-59
2023/05/22 05:41:05;;;;;;;33.65;26.27;;;16.30;99.90;;;;;;5005955;28;20045;-58
2023/05/22 05:43:31;;;;;;;31.35;26.13;;;16.30;99.90;;;;;;5005670;28;20642;-59
2023/05/22 05:45:56;;;;;;;31.60;25.70;;;16.30;99.90;;;;;;5006875;28;20037;-58
2023/05/22 05:48:22;;;;;;;32.45;25.77;;;16.30;99.90;;;;;;5005886;28;20060;-57
2023/05/22 05:50:48;;;;;;;33.08;25.67;;;16.40;99.90;;;;;;5006301;28;20046;-59
2023/05/22 05:53:14;;;;;;;29.52;24.42;;;16.40;99.90;;;;;;5006172;28;20046;-57
2023/05/22 05:55:40;;;;;;;30.15;24.92;;;16.40;99.90;;;;;;5006160;28;20121;-57
2023/05/22 05:58:05;;;;;;;28.38;22.42;;;16.40;99.90;;;;;;5002082;28;20142;-58
2023/05/22 06:00:31;;;;;;;26.85;22.70;;;16.40;99.90;;;;;;4987084;28;20064;-59
2023/05/22 06:02:58;;;;;;;29.65;24.05;;;16.40;99.90;;;;;;4986971;28;20126;-57
2023/05/22 06:05:25;;;;;;;27.52;23.67;;;16.40;99.90;;;;;;4968804;28;20125;-59
2023/05/22 06:07:51;;;;;;;28.00;22.75;;;16.50;99.90;;;;;;4986240;28;20121;-59
2023/05/22 06:10:17;;;;;;;27.67;23.13;;;16.50;99.90;;;;;;4986419;28;20042;-61
2023/05/22 06:12:43;;;;;;;28.63;23.42;;;16.50;99.90;;;;;;4985690;28;20104;-59
2023/05/22 06:15:08;;;;;;;29.08;23.20;;;16.50;99.90;;;;;;4986110;28;20050;-59
2023/05/22 06:17:35;;;;;;;25.60;22.80;;;16.50;99.90;;;;;;4986241;28;20402;-56
2023/05/22 06:20:02;;;;;;;29.17;22.58;;;16.50;99.90;;;;;;4969163;28;20097;-58
2023/05/22 06:22:28;;;;;;;30.00;22.10;;;16.60;99.90;;;;;;4985869;28;20056;-56
2023/05/22 06:24:54;;;;;;;27.00;21.65;;;16.60;99.90;;;;;;4985394;28;20148;-57
2023/05/22 06:27:21;;;;;;;30.05;22.27;;;16.60;99.90;;;;;;4985096;28;20338;-59
2023/05/22 06:29:48;;;;;;;26.00;20.83;;;16.60;99.90;;;;;;4952086;28;20051;-57
2023/05/22 06:32:13;;;;;;;24.25;20.73;;;16.60;99.90;;;;;;4992743;28;20030;-58
2023/05/22 06:34:39;;;;;;;25.42;19.52;;;16.60;99.90;;;;;;4987585;28;20033;-57
2023/05/22 06:37:05;;;;;;;25.70;19.52;;;16.50;99.90;;;;;;5004902;28;20173;-57
2023/05/22 06:39:31;;;;;;;21.13;18.80;;;16.50;99.90;;;;;;5004919;28;20046;-58
2023/05/22 06:41:57;;;;;;;24.60;19.88;;;16.50;99.90;;;;;;5004846;28;20042;-58
2023/05/22 06:44:24;;;;;;;23.05;18.77;;;16.40;99.90;;;;;;5004213;28;20397;-58
2023/05/22 06:46:51;;;;;;;21.92;18.92;;;16.40;99.90;;;;;;4987211;28;20045;-58
2023/05/22 06:49:17;;;;;;;21.63;19.05;;;16.50;99.90;;;;;;5005111;28;20069;-58
2023/05/22 06:51:44;;;;;;;21.45;18.33;;;16.50;99.90;;;;;;5005126;28;20467;-52
2023/05/22 06:54:11;;;;;;;22.55;18.42;;;16.40;99.90;;;;;;5004497;28;20045;-55
2023/05/22 06:56:37;;;;;;;25.73;16.83;;;16.40;99.90;;;;;;5005565;28;20038;-56
2023/05/22 06:59:03;;;;;;;27.13;18.88;;;16.50;99.90;;;;;;5004558;28;20034;-56
2023/05/22 07:01:28;;;;;;;29.88;17.45;;;16.60;99.90;;;;;;5005045;28;20132;-56
2023/05/22 07:03:57;;;;;;;20.48;18.27;;;16.60;99.90;;;;;;4986674;28;20042;-56
2023/05/22 07:06:23;;;;;;;23.58;18.70;;;16.60;99.90;;;;;;5005815;28;20077;-59
2023/05/22 07:08:50;;;;;;;22.25;16.73;;;16.60;99.90;;;;;;5006999;28;20463;-51
2023/05/22 07:11:15;;;;;;;22.33;18.20;;;16.70;99.90;;;;;;5006201;28;20046;-57
2023/05/22 07:13:41;;;;;;;23.67;17.70;;;16.70;99.90;;;;;;5004637;28;20278;-58
2023/05/22 07:16:07;;;;;;;23.80;17.67;;;16.80;99.90;;;;;;5004834;28;20074;-57
2023/05/22 07:18:33;;;;;;;22.65;17.52;;;16.80;99.90;;;;;;5004641;28;20045;-57
2023/05/22 07:20:58;;;;;;;24.75;17.98;;;16.80;99.90;;;;;;5005253;28;20109;-57
2023/05/22 07:23:24;;;;;;;20.77;16.50;;;16.80;99.90;;;;;;5005908;28;20042;-58
2023/05/22 07:25:49;;;;;;;23.45;17.42;;;16.80;99.90;;;;;;5006832;28;20096;-58
2023/05/22 07:28:15;;;;;;;21.50;17.88;;;16.80;99.90;;;;;;5005111;28;20046;-57
2023/05/22 07:30:41;;;;;;;26.77;17.20;;;16.90;99.90;;;;;;5006210;28;20074;-58
2023/05/22 07:33:07;;;;;;;22.27;17.70;;;16.90;99.90;;;;;;5006206;28;20497;-59
2023/05/22 07:35:33;;;;;;;23.50;17.40;;;16.90;99.90;;;;;;5007397;28;20119;-57
2023/05/22 07:37:59;;;;;;;22.63;17.05;;;16.90;99.90;;;;;;5009838;28;20089;-58
2023/05/22 07:40:25;;;;;;;22.88;16.95;;;17.00;99.90;;;;;;5009892;28;20077;-57
2023/05/22 07:42:51;;;;;;;19.05;15.52;;;17.00;99.90;;;;;;5009760;28;20041;-54
2023/05/22 07:45:16;;;;;;;24.13;16.45;;;17.10;99.90;;;;;;5009694;28;20046;-56
2023/05/22 07:47:42;;;;;;;25.05;16.00;;;17.20;99.90;;;;;;5010369;28;20069;-58
2023/05/22 07:50:08;;;;;;;24.80;16.30;;;17.30;99.90;;;;;;5010030;28;20477;-58
2023/05/22 07:52:33;;;;;;;19.38;15.63;;;17.40;99.90;;;;;;5009851;28;20100;-58
2023/05/22 07:54:59;;;;;;;25.00;15.75;;;17.50;99.90;;;;;;5010184;28;20053;-58
2023/05/22 07:57:25;;;;;;;21.10;15.30;;;17.60;99.90;;;;;;5009431;28;20038;-58
2023/05/22 07:59:51;;;;;;;20.45;15.55;;;17.60;99.90;;;;;;5009757;28;20052;-58
2023/05/22 08:02:19;;;;;;;19.65;15.65;;;17.60;99.90;;;;;;4992191;28;20050;-54
2023/05/22 08:04:44;;;;;;;20.92;14.90;;;17.70;99.90;;;;;;5009381;28;20085;-58
2023/05/22 08:07:10;;;;;;;20.38;14.43;;;17.80;99.90;;;;;;4992036;28;20088;-58
2023/05/22 08:09:36;;;;;;;20.88;12.73;;;17.70;99.90;;;;;;4990949;28;20046;-49
2023/05/22 08:12:02;;;;;;;24.35;17.48;;;17.70;99.90;;;;;;4989368;28;20069;-57
2023/05/22 08:14:29;;;;;;;23.75;15.60;;;17.90;99.90;;;;;;5000668;28;20065;-57
2023/05/22 08:16:57;;;;;;;22.17;15.30;;;17.80;99.90;;;;;;4995411;28;20054;-56
2023/05/22 08:19:23;;;;;;;21.77;14.52;;;17.90;99.90;;;;;;4997683;28;20108;-58
2023/05/22 08:21:51;;;;;;;20.27;14.63;;;17.80;99.90;;;;;;5007105;28;20041;-58
2023/05/22 08:24:17;;;;;;;33.22;24.15;;;17.90;99.90;;;;;;5004058;28;20100;-58
2023/05/22 08:26:43;;;;;;;27.40;21.77;;;17.90;99.90;;;;;;4987988;28;20042;-57
2023/05/22 08:29:09;;;;;;;23.92;14.45;;;18.00;99.90;;;;;;4996902;28;20509;-58
2023/05/22 08:31:35;;;;;;;18.40;13.23;;;18.00;99.90;;;;;;5007510;28;20567;-57
2023/05/22 08:34:05;;;;;;;19.20;13.63;;;18.00;99.90;;;;;;5004217;28;20097;-59
2023/05/22 08:36:32;;;;;;;21.83;13.65;;;18.10;99.90;;;;;;4988058;28;20613;-58
2023/05/22 08:38:58;;;;;;;22.25;14.07;;;18.10;99.90;;;;;;4987986;28;20061;-59
2023/05/22 08:41:24;;;;;;;18.58;13.57;;;18.20;99.90;;;;;;4987143;28;20133;-57
2023/05/22 08:43:49;;;;;;;20.88;14.15;;;18.10;99.90;;;;;;4987218;28;20126;-59
2023/05/22 08:46:16;;;;;;;21.88;14.23;;;18.10;99.90;;;;;;4987784;28;20042;-59
2023/05/22 08:48:43;;;;;;;20.70;14.32;;;18.10;99.90;;;;;;4986842;28;20416;-59
2023/05/22 08:51:13;;;;;;;20.50;13.80;;;18.20;99.90;;;;;;4987941;28;20305;-59
2023/05/22 08:53:41;;;;;;;26.52;14.30;;;18.10;99.90;;;;;;4987983;28;20797;-59
2023/05/22 08:56:07;;;;;;;20.55;14.52;;;18.10;99.90;;;;;;4987466;28;20417;-59
2023/05/22 08:58:36;;;;;;;22.13;14.07;;;18.10;99.90;;;;;;4987347;28;20054;-58
2023/05/22 09:01:04;;;;;;;21.75;14.68;;;18.10;99.90;;;;;;4987238;28;20065;-58
2023/05/22 09:03:33;;;;;;;25.35;14.95;;;18.10;99.90;;;;;;4988280;28;20054;-58
2023/05/22 09:06:00;;;;;;;32.03;14.90;;;18.10;99.90;;;;;;4971671;28;20061;-58
2023/05/22 09:08:27;;;;;;;25.42;14.30;;;18.10;99.90;;;;;;4988742;28;20098;-58
2023/05/22 09:10:56;;;;;;;23.45;14.50;;;18.10;99.90;;;;;;4971324;28;20042;-59
2023/05/22 09:13:30;;;;;;;25.73;13.55;;;18.00;99.90;;;;;;4970420;28;20087;-58
2023/05/22 09:16:11;;;;;;;24.25;14.65;;;18.00;99.90;;;;;;4987275;28;20058;-58
2023/05/22 09:18:37;;;;;;;23.45;13.05;;;17.90;99.90;;;;;;4987353;28;20414;-57
2023/05/22 09:21:05;;;;;;;27.48;14.70;;;17.90;99.90;;;;;;4987230;28;20054;-57
2023/05/22 09:23:31;;;;;;;27.63;14.10;;;17.80;99.90;;;;;;4987274;28;20054;-59
2023/05/22 09:25:59;;;;;;;27.13;14.65;;;17.80;99.90;;;;;;4987055;28;20045;-58
2023/05/22 09:28:25;;;;;;;36.42;20.80;;;17.80;99.90;;;;;;4986226;28;20050;-58
2023/05/22 09:30:53;;;;;;;27.42;15.20;;;17.80;99.90;;;;;;4987199;28;20042;-57
2023/05/22 09:33:22;;;;;;;31.40;15.93;;;17.70;99.90;;;;;;4986687;28;20049;-57
2023/05/22 09:35:51;;;;;;;22.95;14.57;;;17.70;99.90;;;;;;4987045;28;20441;-57
2023/05/22 09:38:16;;;;;;;25.58;14.32;;;17.60;99.90;;;;;;4986907;28;20050;-59
2023/05/22 09:40:42;;;;;;;26.65;14.82;;;17.60;99.90;;;;;;4986771;28;20126;-57
2023/05/22 09:43:16;;;;;;;24.92;14.30;;;17.50;99.90;;;;;;4985971;28;20038;-57
2023/05/22 09:45:41;;;;;;;24.97;15.13;;;17.50;99.90;;;;;;4987334;28;20058;-58
2023/05/22 09:48:09;;;;;;;24.85;14.18;;;17.50;99.90;;;;;;4986655;28;20104;-57
2023/05/22 09:50:35;;;;;;;28.15;14.32;;;17.50;99.90;;;;;;4986722;28;20054;-57
2023/05/22 09:53:02;;;;;;;25.65;15.07;;;17.50;99.90;;;;;;4986747;28;20476;-57
2023/05/22 09:55:29;;;;;;;29.70;14.50;;;17.50;99.90;;;;;;4969009;28;20038;-59
2023/05/22 09:57:56;;;;;;;30.58;15.80;;;17.60;99.90;;;;;;4986171;28;20468;-58
2023/05/22 10:00:23;;;;;;;28.08;14.93;;;17.60;99.90;;;;;;4986459;28;20440;-60
2023/05/22 10:03:06;;;;;;;25.83;14.77;;;17.70;99.90;;;;;;4986367;28;20573;-57
2023/05/22 10:05:32;;;;;;;24.05;15.30;;;17.70;99.90;;;;;;4986266;28;20137;-58
2023/05/22 10:08:09;;;;;;;36.15;16.77;;;17.80;99.90;;;;;;4986280;28;20045;-58
2023/05/22 10:10:35;;;;;;;29.05;15.68;;;17.80;99.90;;;;;;4986505;28;20741;-56
2023/05/22 10:13:05;;;;;;;25.95;15.80;;;17.80;99.90;;;;;;4985605;28;20046;-61
2023/05/22 10:15:31;;;;;;;29.73;15.93;;;17.90;99.90;;;;;;4985959;28;20391;-58
2023/05/22 10:18:00;;;;;;;28.25;16.85;;;17.80;99.90;;;;;;4985533;28;20133;-57
2023/05/22 10:20:27;;;;;;;30.20;15.32;;;18.00;99.90;;;;;;4986256;28;20125;-56
2023/05/22 10:22:54;;;;;;;28.38;16.42;;;18.10;99.90;;;;;;4985684;28;20064;-57
2023/05/22 10:25:24;;;;;;;30.92;16.70;;;18.10;99.90;;;;;;4985739;28;20449;-60
2023/05/22 10:27:54;;;;;;;29.27;16.50;;;18.20;99.90;;;;;;4985246;28;20124;-52
2023/05/22 10:30:35;;;;;;;25.95;15.80;;;18.30;99.90;;;;;;4986044;28;20225;-58
2023/05/22 10:33:23;;;;;;;25.00;15.93;;;18.40;99.90;;;;;;4987241;28;20430;-57
2023/05/22 10:35:54;;;;;;;27.98;16.90;;;18.40;99.90;;;;;;4969403;28;20181;-58
2023/05/22 10:38:41;;;;;;;22.95;15.95;;;18.50;99.90;;;;;;4984943;28;20073;-58
2023/05/22 10:41:08;;;;;;;23.67;15.65;;;18.50;99.90;;;;;;4988946;28;20047;-59
2023/05/22 10:43:39;;;;;;;23.23;17.25;;;18.60;99.90;;;;;;4986577;28;20109;-58
2023/05/22 10:46:07;;;;;;;30.10;17.20;;;18.70;99.90;;;;;;4987144;28;20613;-58
2023/05/22 10:48:38;;;;;;;23.83;17.08;;;18.90;99.90;;;;;;5006160;28;20092;-57
2023/05/22 10:51:05;;;;;;;24.50;16.27;;;19.00;99.90;;;;;;5006031;28;20136;-58
2023/05/22 10:53:31;;;;;;;19.27;15.75;;;19.10;99.90;;;;;;5006373;28;20041;-59
2023/05/22 10:56:01;;;;;;;26.05;16.40;;;19.20;99.90;;;;;;5005722;28;20095;-58
2023/05/22 10:58:33;;;;;;;19.67;16.30;;;19.20;99.90;;;;;;4986510;28;20046;-60
2023/05/22 11:01:18;;;;;;;25.73;17.38;;;19.30;99.90;;;;;;4986924;28;20550;-62
2023/05/22 11:04:03;;;;;;;18.92;16.67;;;19.40;99.90;;;;;;4987145;28;20046;-57
2023/05/22 11:06:34;;;;;;;20.67;17.67;;;19.60;99.90;;;;;;4986952;28;20057;-64
2023/05/22 11:09:15;;;;;;;23.42;17.95;;;19.80;99.90;;;;;;4987147;28;20141;-59
2023/05/22 11:11:41;;;;;;;19.35;17.38;;;19.90;99.90;;;;;;4985959;28;20046;-58
2023/05/22 11:14:07;;;;;;;19.63;17.45;;;20.00;99.90;;;;;;4986195;28;20058;-62
2023/05/22 11:16:33;;;;;;;21.60;18.23;;;20.00;99.90;;;;;;4986456;28;20138;-56
2023/05/22 11:19:06;;;;;;;20.90;18.70;;;20.00;99.90;;;;;;4986710;28;20046;-54
2023/05/22 11:21:43;;;;;;;23.90;18.55;;;19.90;99.90;;;;;;4986374;28;20046;-55
2023/05/22 11:24:10;;;;;;;20.08;17.98;;;19.90;99.90;;;;;;4987135;28;20047;-55
2023/05/22 11:26:40;;;;;;;21.52;18.77;;;19.90;99.90;;;;;;4986159;28;20133;-55
2023/05/22 11:29:07;;;;;;;23.50;18.55;;;19.90;99.90;;;;;;4986745;28;20108;-56
2023/05/22 11:31:33;;;;;;;21.52;18.67;;;19.90;99.90;;;;;;4986920;28;20046;-56
2023/05/22 11:34:00;;;;;;;22.48;18.38;;;20.00;99.90;;;;;;4987214;28;20081;-55
2023/05/22 11:36:27;;;;;;;21.50;19.25;;;20.10;99.90;;;;;;4986515;28;20035;-55
2023/05/22 11:38:57;;;;;;;20.50;18.05;;;20.30;99.90;;;;;;4987148;28;20050;-55
2023/05/22 11:41:23;;;;;;;22.35;18.05;;;20.40;99.90;;;;;;4986027;28;20053;-54
2023/05/22 11:43:48;;;;;;;22.05;18.38;;;20.60;99.90;;;;;;4986679;28;20394;-54
2023/05/22 11:52:35;;;;;;;22.70;18.48;;;20.90;99.90;;;;;;5193497;22;20066;-54
2023/05/22 11:55:06;;;;;;;21.80;18.75;;;21.00;99.90;;;;;;5046451;28;20108;-68
2023/05/22 11:57:33;;;;;;;23.33;19.13;;;21.00;99.90;;;;;;5044567;28;20067;-65
2023/05/22 11:59:59;;;;;;;21.98;18.25;;;21.10;99.90;;;;;;5045512;28;20080;-61
2023/05/22 12:02:25;;;;;;;23.85;19.58;;;21.20;99.90;;;;;;5045581;28;20128;-62
2023/05/22 12:04:54;;;;;;;20.33;17.90;;;21.30;99.90;;;;;;5045344;28;20477;-59
2023/05/22 12:07:21;;;;;;;21.92;18.58;;;21.50;99.90;;;;;;5045493;28;20415;-59
2023/05/22 12:09:47;;;;;;;19.85;17.92;;;21.80;99.90;;;;;;5045502;28;20052;-59
2023/05/22 12:12:15;;;;;;;19.83;17.65;;;22.10;99.90;;;;;;5044322;28;20049;-57
2023/05/22 12:14:44;;;;;;;20.38;18.17;;;22.50;99.90;;;;;;5027798;28;20113;-58
2023/05/22 12:17:12;;;;;;;21.73;18.88;;;22.70;99.90;;;;;;5044744;28;20049;-59
2023/05/22 12:19:41;;;;;;;21.30;19.08;;;22.90;99.90;;;;;;5045165;28;20040;-60
2023/05/22 12:22:08;;;;;;;21.13;18.92;;;23.00;99.90;;;;;;5046025;28;20068;-61
2023/05/22 12:24:44;;;;;;;20.77;18.67;;;22.90;99.90;;;;;;5049204;28;20052;-51
2023/05/22 12:27:11;;;;;;;20.25;18.20;;;22.90;99.90;;;;;;5047770;28;20049;-68
2023/05/22 12:29:37;;;;;;;20.40;18.23;;;22.80;99.90;;;;;;5049175;28;20071;-57
2023/05/22 12:32:06;;;;;;;19.63;17.60;;;22.80;99.90;;;;;;5049441;28;20045;-61
2023/05/22 12:34:33;;;;;;;19.92;17.92;;;22.70;99.90;;;;;;5048739;28;20073;-51
2023/05/22 12:36:59;;;;;;;20.40;18.27;;;22.90;99.90;;;;;;5031544;28;20124;-60